createdAt,value
2023-01-29T00:02:15.547Z,33.50
2023-01-29T00:04:42.579Z,31.70
2023-01-29T00:07:09.884Z,34.35
2023-01-29T00:09:37.078Z,36.45
2023-01-29T00:12:04.519Z,32.15
2023-01-29T00:14:31.503Z,30.75
2023-01-29T00:16:58.896Z,33.72
2023-01-29T00:19:25.925Z,31.20
2023-01-29T00:21:53.208Z,34.88
2023-01-29T00:24:20.330Z,31.42
2023-01-29T00:26:50.017Z,30.50
2023-01-29T00:29:17.842Z,31.67
2023-01-29T00:31:46.072Z,30.73
2023-01-29T00:34:13.481Z,27.77
2023-01-29T00:36:40.742Z,32.20
2023-01-29T00:39:10.671Z,23.70
2023-01-29T00:41:57.224Z,24.85
2023-01-29T00:44:42.894Z,20.58
2023-01-29T00:47:29.035Z,17.13
2023-01-29T00:49:56.742Z,17.77
2023-01-29T00:52:24.619Z,16.08
2023-01-29T00:55:02.366Z,15.10
2023-01-29T00:57:32.135Z,13.70
2023-01-29T00:59:59.722Z,13.57
2023-01-29T01:02:47.193Z,15.93
2023-01-29T01:05:18.236Z,12.88
2023-01-29T01:07:53.028Z,13.20
2023-01-29T01:10:25.610Z,14.80
2023-01-29T01:13:06.256Z,11.85
2023-01-29T01:15:39.835Z,15.82
2023-01-29T01:18:07.567Z,10.50
2023-01-29T01:20:36.269Z,13.95
2023-01-29T01:23:04.097Z,14.15
2023-01-29T01:25:31.273Z,15.52
2023-01-29T01:28:02.773Z,16.98
2023-01-29T01:30:30.449Z,15.60
2023-01-29T01:32:58.056Z,17.27
2023-01-29T01:35:25.131Z,16.70
2023-01-29T01:37:52.576Z,16.42
2023-01-29T01:40:25.712Z,16.95
2023-01-29T01:42:59.872Z,18.48
2023-01-29T01:45:33.748Z,16.17
2023-01-29T01:48:11.296Z,13.77
2023-01-29T01:51:03.654Z,15.73
2023-01-29T01:54:07.243Z,18.88
2023-01-29T01:59:15.839Z,16.70
2023-01-29T02:01:50.083Z,17.30
2023-01-29T02:04:41.783Z,16.55
2023-01-29T02:07:33.666Z,15.68
2023-01-29T02:10:09.451Z,20.70
2023-01-29T02:12:38.399Z,15.43
2023-01-29T02:15:06.849Z,15.95
2023-01-29T02:17:34.053Z,15.77
2023-01-29T02:20:24.648Z,14.43
2023-01-29T02:26:02.562Z,13.70
2023-01-29T02:28:45.631Z,15.35
2023-01-29T02:31:44.279Z,15.98
2023-01-29T02:34:25.966Z,12.40
2023-01-29T02:37:10.407Z,11.63
2023-01-29T02:39:51.789Z,11.93
2023-01-29T02:42:39.108Z,13.13
2023-01-29T02:45:18.151Z,12.73
2023-01-29T02:47:58.798Z,12.73
2023-01-29T02:50:44.784Z,14.55
2023-01-29T02:53:19.117Z,13.55
2023-01-29T02:55:59.838Z,15.82
2023-01-29T02:58:50.999Z,13.82
2023-01-29T03:01:31.383Z,17.25
2023-01-29T03:04:14.030Z,16.75
2023-01-29T03:06:58.354Z,14.90
2023-01-29T03:09:31.653Z,14.70
2023-01-29T03:12:28.435Z,17.67
2023-01-29T03:15:12.118Z,15.57
2023-01-29T03:17:58.824Z,14.73
2023-01-29T03:20:38.557Z,15.38
2023-01-29T03:23:23.789Z,16.45
2023-01-29T03:26:14.692Z,14.93
2023-01-29T03:29:03.785Z,14.40
2023-01-29T03:31:55.072Z,15.45
2023-01-29T03:34:34.944Z,18.38
2023-01-29T03:37:11.093Z,16.25
2023-01-29T03:39:38.192Z,17.05
2023-01-29T03:42:41.394Z,15.80
2023-01-29T03:45:46.970Z,18.02
2023-01-29T03:48:40.686Z,14.50
2023-01-29T03:51:51.087Z,14.27
2023-01-29T03:54:52.962Z,15.50
2023-01-29T03:57:37.973Z,15.15
2023-01-29T04:00:12.397Z,17.35
2023-01-29T04:03:20.778Z,16.48
2023-01-29T04:06:24.090Z,16.27
2023-01-29T04:09:45.524Z,15.85
2023-01-29T04:12:20.446Z,16.95
2023-01-29T04:14:51.536Z,16.33
2023-01-29T04:17:27.618Z,15.13
2023-01-29T04:20:04.532Z,18.20
2023-01-29T04:22:39.873Z,16.27
2023-01-29T04:25:19.385Z,16.10
2023-01-29T04:28:08.643Z,15.43
2023-01-29T04:31:08.577Z,17.48
2023-01-29T04:34:02.180Z,15.40
2023-01-29T04:37:07.811Z,18.55
2023-01-29T04:39:48.170Z,13.18
2023-01-29T04:42:42.795Z,16.80
2023-01-29T04:45:59.104Z,13.88
2023-01-29T04:49:11.257Z,14.82
2023-01-29T04:52:00.585Z,13.70
2023-01-29T04:54:54.705Z,17.00
2023-01-29T04:57:34.610Z,16.85
2023-01-29T05:00:20.177Z,13.13
2023-01-29T05:02:49.249Z,11.98
2023-01-29T05:05:20.366Z,13.00
2023-01-29T05:07:49.595Z,10.15
2023-01-29T05:10:21.301Z,9.32
2023-01-29T05:12:58.767Z,7.70
2023-01-29T05:15:37.833Z,10.85
2023-01-29T05:18:08.966Z,9.23
2023-01-29T05:20:41.028Z,11.52
2023-01-29T05:23:17.760Z,8.00
2023-01-29T05:25:46.264Z,10.38
2023-01-29T05:28:17.231Z,11.90
2023-01-29T05:30:51.604Z,10.77
2023-01-29T05:33:29.883Z,10.10
2023-01-29T05:35:59.966Z,11.57
2023-01-29T05:38:27.275Z,11.48
2023-01-29T05:40:54.764Z,12.63
2023-01-29T05:43:25.090Z,12.27
2023-01-29T05:45:58.114Z,11.48
2023-01-29T05:48:28.692Z,11.88
2023-01-29T05:51:04.421Z,11.13
2023-01-29T05:53:32.812Z,10.63
2023-01-29T05:56:05.056Z,11.85
2023-01-29T06:01:14.383Z,9.27
2023-01-29T06:03:41.728Z,10.07
2023-01-29T06:06:09.118Z,10.68
2023-01-29T06:08:37.070Z,9.77
2023-01-29T06:11:04.631Z,9.50
2023-01-29T06:13:31.859Z,11.23
2023-01-29T06:15:58.980Z,12.57
2023-01-29T06:18:26.653Z,8.90
2023-01-29T06:20:53.708Z,8.18
2023-01-29T06:23:21.043Z,11.45
2023-01-29T06:25:47.994Z,9.77
2023-01-29T06:28:15.221Z,8.60
2023-01-29T06:30:42.434Z,9.50
2023-01-29T06:33:09.666Z,9.65
2023-01-29T06:35:36.650Z,10.30
2023-01-29T06:38:03.902Z,10.23
2023-01-29T06:40:30.847Z,9.98
2023-01-29T06:43:00.943Z,6.38
2023-01-29T06:45:28.013Z,8.35
2023-01-29T06:47:56.526Z,7.63
2023-01-29T06:50:23.492Z,7.30
2023-01-29T06:52:50.699Z,8.85
2023-01-29T06:55:17.704Z,7.63
2023-01-29T06:57:44.890Z,10.45
2023-01-29T07:00:13.003Z,7.82
2023-01-29T07:02:40.295Z,10.07
2023-01-29T07:05:07.776Z,8.73
2023-01-29T07:07:36.787Z,7.28
2023-01-29T07:10:04.255Z,8.65
2023-01-29T07:12:31.556Z,7.85
2023-01-29T07:14:58.532Z,7.75
2023-01-29T07:17:25.743Z,7.97
2023-01-29T07:19:52.663Z,10.93
2023-01-29T07:22:20.127Z,8.80
2023-01-29T07:24:48.332Z,8.23
2023-01-29T07:27:15.621Z,10.73
2023-01-29T07:29:42.627Z,7.75
2023-01-29T07:32:09.848Z,8.55
2023-01-29T07:34:36.892Z,7.88
2023-01-29T07:37:06.026Z,9.48
2023-01-29T07:39:33.250Z,10.82
2023-01-29T07:42:00.522Z,9.93
2023-01-29T07:44:28.998Z,9.10
2023-01-29T07:46:56.208Z,10.57
2023-01-29T07:49:23.125Z,9.18
2023-01-29T07:51:50.463Z,9.48
2023-01-29T07:54:17.424Z,8.77
2023-01-29T07:56:44.578Z,12.63
2023-01-29T07:59:11.647Z,9.80
2023-01-29T08:01:38.954Z,10.25
2023-01-29T08:04:05.869Z,9.48
2023-01-29T08:06:33.476Z,10.23
2023-01-29T08:09:00.523Z,8.57
2023-01-29T08:11:27.764Z,10.02
2023-01-29T08:13:55.255Z,9.40
2023-01-29T08:16:22.843Z,11.40
2023-01-29T08:18:50.133Z,9.98
2023-01-29T08:21:17.430Z,9.45
2023-01-29T08:23:44.486Z,9.57
2023-01-29T08:26:11.740Z,7.57
2023-01-29T08:28:38.825Z,9.90
2023-01-29T08:31:20.473Z,12.23
2023-01-29T08:33:47.970Z,10.00
2023-01-29T08:36:15.733Z,9.73
2023-01-29T08:38:42.818Z,10.65
2023-01-29T08:41:10.076Z,9.25
2023-01-29T08:43:37.269Z,8.50
2023-01-29T08:46:06.896Z,7.68
2023-01-29T08:48:34.301Z,11.38
2023-01-29T08:51:02.894Z,8.48
2023-01-29T08:53:30.972Z,7.32
2023-01-29T08:55:58.323Z,8.75
2023-01-29T08:58:25.360Z,9.20
2023-01-29T09:00:52.772Z,8.52
2023-01-29T09:03:19.865Z,8.73
2023-01-29T09:05:47.067Z,10.27
2023-01-29T09:08:15.380Z,7.93
2023-01-29T09:10:43.127Z,11.90
2023-01-29T09:13:10.335Z,9.57
2023-01-29T09:15:37.598Z,12.02
2023-01-29T09:18:05.491Z,9.68
2023-01-29T09:20:33.396Z,10.75
2023-01-29T09:23:09.544Z,9.90
2023-01-29T09:25:37.606Z,9.25
2023-01-29T09:28:06.146Z,10.32
2023-01-29T09:30:34.642Z,11.02
2023-01-29T09:33:02.358Z,11.90
2023-01-29T09:35:29.653Z,9.65
2023-01-29T09:37:56.938Z,9.23
2023-01-29T09:40:38.324Z,8.43
2023-01-29T09:43:20.367Z,10.75
2023-01-29T09:46:07.725Z,7.78
2023-01-29T09:48:37.248Z,9.68
2023-01-29T09:51:16.566Z,10.70
2023-01-29T09:53:57.668Z,9.40
2023-01-29T09:56:28.849Z,10.02
2023-01-29T09:59:01.677Z,8.98
2023-01-29T10:01:50.702Z,10.32
2023-01-29T10:05:04.743Z,10.68
2023-01-29T10:08:00.536Z,10.13
2023-01-29T10:10:50.570Z,13.77
2023-01-29T10:13:45.178Z,12.75
2023-01-29T10:16:42.023Z,11.77
2023-01-29T10:20:02.866Z,13.85
2023-01-29T10:23:20.613Z,14.88
2023-01-29T10:25:49.677Z,15.93
2023-01-29T10:28:43.280Z,16.05
2023-01-29T10:31:32.636Z,16.83
2023-01-29T10:34:41.060Z,14.85
2023-01-29T10:37:40.040Z,15.82
2023-01-29T10:40:29.305Z,17.75
2023-01-29T10:43:12.899Z,17.33
2023-01-29T10:46:27.099Z,15.73
2023-01-29T10:49:37.671Z,18.48
2023-01-29T10:52:41.919Z,16.70
2023-01-29T10:55:35.921Z,19.30
2023-01-29T10:58:38.089Z,15.82
2023-01-29T11:01:05.425Z,17.20
2023-01-29T11:03:34.265Z,18.92
2023-01-29T11:06:24.051Z,15.18
2023-01-29T11:12:20.182Z,19.45
2023-01-29T11:14:53.213Z,17.73
2023-01-29T11:17:25.622Z,15.07
2023-01-29T11:19:57.880Z,16.13
2023-01-29T11:22:30.297Z,14.93
2023-01-29T11:25:20.627Z,11.75
2023-01-29T11:27:57.045Z,11.77
2023-01-29T11:30:30.603Z,12.02
2023-01-29T11:33:18.255Z,13.68
2023-01-29T11:35:45.795Z,13.75
2023-01-29T11:38:16.085Z,12.63
2023-01-29T11:40:44.165Z,13.82
2023-01-29T11:43:29.894Z,12.98
2023-01-29T11:46:05.303Z,13.20
2023-01-29T11:48:45.361Z,12.13
2023-01-29T11:51:24.527Z,11.90
2023-01-29T11:54:01.807Z,12.00
2023-01-29T11:56:46.777Z,13.13
2023-01-29T11:59:44.254Z,13.25
2023-01-29T12:02:28.173Z,12.35
2023-01-29T12:05:04.524Z,13.65
2023-01-29T12:07:32.818Z,12.77
2023-01-29T12:10:00.821Z,12.68
2023-01-29T12:12:42.811Z,11.25
2023-01-29T12:15:21.138Z,10.02
2023-01-29T12:18:01.071Z,11.65
2023-01-29T12:20:42.439Z,11.57
2023-01-29T12:23:40.686Z,11.18
2023-01-29T12:26:21.496Z,17.92
2023-01-29T12:29:23.301Z,12.77
2023-01-29T12:32:05.827Z,11.40
2023-01-29T12:34:55.443Z,7.03
2023-01-29T12:38:00.906Z,12.07
2023-01-29T12:40:46.037Z,13.38
2023-01-29T12:43:19.430Z,12.80
2023-01-29T12:45:54.184Z,9.82
2023-01-29T12:48:31.195Z,11.40
2023-01-29T12:51:09.508Z,14.93
2023-01-29T12:53:50.691Z,10.88
2023-01-29T12:56:47.287Z,12.32
2023-01-29T12:59:36.513Z,12.82
2023-01-29T13:02:40.118Z,15.98
2023-01-29T13:05:19.510Z,13.00
2023-01-29T13:07:57.522Z,12.85
2023-01-29T13:10:38.455Z,10.98
2023-01-29T13:13:27.342Z,12.93
2023-01-29T13:15:56.858Z,11.82
2023-01-29T13:18:58.586Z,12.95
2023-01-29T13:21:35.011Z,12.10
2023-01-29T13:24:15.826Z,13.77
2023-01-29T13:26:48.605Z,8.15
2023-01-29T13:29:26.541Z,11.23
2023-01-29T13:32:01.048Z,9.02
2023-01-29T13:34:36.901Z,10.98
2023-01-29T13:37:17.724Z,9.50
2023-01-29T13:39:54.400Z,9.90
2023-01-29T13:42:47.009Z,12.43
2023-01-29T13:45:43.233Z,8.70
2023-01-29T13:48:28.561Z,10.48
2023-01-29T13:51:02.422Z,9.32
2023-01-29T13:53:40.062Z,14.38
2023-01-29T13:56:49.853Z,14.05
2023-01-29T13:59:51.922Z,13.93
2023-01-29T14:02:24.576Z,10.13
2023-01-29T14:05:14.156Z,12.68
2023-01-29T14:07:47.059Z,11.57
2023-01-29T14:10:20.717Z,10.85
2023-01-29T14:12:51.665Z,9.70
2023-01-29T14:15:25.046Z,9.63
2023-01-29T14:18:09.374Z,13.30
2023-01-29T14:20:51.994Z,11.40
2023-01-29T14:23:33.853Z,14.00
2023-01-29T14:26:17.856Z,16.15
2023-01-29T14:29:14.550Z,17.75
2023-01-29T14:31:59.912Z,17.65
2023-01-29T14:34:34.721Z,15.75
2023-01-29T14:37:16.947Z,15.07
2023-01-29T14:39:53.011Z,11.50
2023-01-29T14:42:44.027Z,13.80
2023-01-29T14:45:39.713Z,14.70
2023-01-29T14:48:10.137Z,12.13
2023-01-29T14:50:37.716Z,13.00
2023-01-29T14:53:29.918Z,11.63
2023-01-29T14:56:10.950Z,13.97
2023-01-29T14:58:49.765Z,11.43
2023-01-29T15:01:25.842Z,12.63
2023-01-29T15:04:30.626Z,10.07
2023-01-29T15:07:18.742Z,11.02
2023-01-29T15:10:22.758Z,12.25
2023-01-29T15:13:02.455Z,11.60
2023-01-29T15:15:51.274Z,13.68
2023-01-29T15:18:24.291Z,15.60
2023-01-29T15:21:05.794Z,12.35
2023-01-29T15:23:34.966Z,15.70
2023-01-29T15:26:08.722Z,14.63
2023-01-29T15:28:36.312Z,15.70
2023-01-29T15:31:12.257Z,16.70
2023-01-29T15:33:46.899Z,15.77
2023-01-29T15:36:31.005Z,20.23
2023-01-29T15:39:14.718Z,19.10
2023-01-29T15:41:43.989Z,18.58
2023-01-29T15:44:23.712Z,16.55
2023-01-29T15:46:59.292Z,16.17
2023-01-29T15:49:37.566Z,17.92
2023-01-29T15:52:09.296Z,17.95
2023-01-29T15:54:36.564Z,19.42
2023-01-29T15:57:04.146Z,17.33
2023-01-29T15:59:39.184Z,18.58
2023-01-29T16:02:34.157Z,16.15
2023-01-29T16:05:03.588Z,15.23
2023-01-29T16:07:31.751Z,15.98
2023-01-29T16:10:00.166Z,16.40
2023-01-29T16:12:28.989Z,18.27
2023-01-29T16:14:57.210Z,22.02
2023-01-29T16:17:37.050Z,17.95
2023-01-29T16:20:07.964Z,19.63
2023-01-29T16:22:39.109Z,18.80
2023-01-29T16:25:14.485Z,17.80
2023-01-29T16:27:44.315Z,18.98
2023-01-29T16:30:17.366Z,20.95
2023-01-29T16:32:44.887Z,19.05
2023-01-29T16:35:17.244Z,20.15
2023-01-29T16:37:50.859Z,18.25
2023-01-29T16:40:34.008Z,21.08
2023-01-29T16:43:28.389Z,17.73
2023-01-29T16:46:04.747Z,20.35
2023-01-29T16:48:34.766Z,20.30
2023-01-29T16:51:21.104Z,18.70
2023-01-29T16:54:18.149Z,17.83
2023-01-29T16:56:48.723Z,17.83
2023-01-29T16:59:34.607Z,16.85
2023-01-29T17:02:04.382Z,18.70
2023-01-29T17:04:33.002Z,17.48
2023-01-29T17:07:02.660Z,17.02
2023-01-29T17:09:37.764Z,18.55
2023-01-29T17:12:17.173Z,14.52
2023-01-29T17:14:58.920Z,18.63
2023-01-29T17:17:35.771Z,17.35
2023-01-29T17:20:14.973Z,16.45
2023-01-29T17:22:44.899Z,16.88
2023-01-29T17:25:17.156Z,17.67
2023-01-29T17:27:51.745Z,17.02
2023-01-29T17:30:23.792Z,16.55
2023-01-29T17:32:50.866Z,17.00
2023-01-29T17:35:18.959Z,20.52
2023-01-29T17:37:46.530Z,21.65
2023-01-29T17:40:57.508Z,20.25
2023-01-29T17:43:24.635Z,22.50
2023-01-29T17:45:51.889Z,18.45
2023-01-29T17:48:28.034Z,23.38
2023-01-29T17:51:04.507Z,22.33
2023-01-29T17:53:44.893Z,23.20
2023-01-29T17:56:23.398Z,20.85
2023-01-29T17:58:50.516Z,21.35
2023-01-29T18:01:17.826Z,25.05
2023-01-29T18:03:44.865Z,23.60
2023-01-29T18:06:27.212Z,24.98
2023-01-29T18:08:54.465Z,26.30
2023-01-29T18:11:21.814Z,24.42
2023-01-29T18:13:48.864Z,26.08
2023-01-29T18:16:18.207Z,25.42
2023-01-29T18:18:45.652Z,23.10
2023-01-29T18:21:12.859Z,21.60
2023-01-29T18:23:39.901Z,23.42
2023-01-29T18:26:10.052Z,23.13
2023-01-29T18:28:37.841Z,24.77
2023-01-29T18:31:06.603Z,22.08
2023-01-29T18:33:35.613Z,21.77
2023-01-29T18:36:06.697Z,25.52
2023-01-29T18:38:33.694Z,27.05
2023-01-29T18:41:11.878Z,28.42
2023-01-29T18:43:41.301Z,29.00
2023-01-29T18:46:09.356Z,26.05
2023-01-29T18:48:36.421Z,26.88
2023-01-29T18:51:03.855Z,24.35
2023-01-29T18:53:32.728Z,24.30
2023-01-29T18:56:04.651Z,25.40
2023-01-29T18:58:35.932Z,26.13
2023-01-29T19:01:09.399Z,30.48
2023-01-29T19:03:38.287Z,26.67
2023-01-29T19:06:08.561Z,27.13
2023-01-29T19:08:36.530Z,28.95
2023-01-29T19:11:07.965Z,24.98
2023-01-29T19:13:36.917Z,25.90
2023-01-29T19:16:11.070Z,25.20
2023-01-29T19:18:38.746Z,25.77
2023-01-29T19:21:09.999Z,24.73
2023-01-29T19:23:37.907Z,27.98
2023-01-29T19:26:06.054Z,24.38
2023-01-29T19:28:33.648Z,22.20
2023-01-29T19:31:01.444Z,25.30
2023-01-29T19:33:32.619Z,21.83
2023-01-29T19:36:00.426Z,29.15
2023-01-29T19:38:28.159Z,26.25
2023-01-29T19:40:56.022Z,26.58
2023-01-29T19:43:23.146Z,24.52
2023-01-29T19:45:59.499Z,25.75
2023-01-29T19:48:27.473Z,25.33
2023-01-29T19:50:57.384Z,28.35
2023-01-29T19:53:27.130Z,26.08
2023-01-29T19:56:04.869Z,27.75
2023-01-29T19:58:33.729Z,21.88
2023-01-29T20:01:14.354Z,24.88
2023-01-29T20:03:42.137Z,23.95
2023-01-29T20:06:09.734Z,23.45
2023-01-29T20:08:36.793Z,22.42
2023-01-29T20:11:05.632Z,25.38
2023-01-29T20:13:33.697Z,23.52
2023-01-29T20:16:05.641Z,23.63
2023-01-29T20:18:33.071Z,23.73
2023-01-29T20:21:08.189Z,23.23
2023-01-29T20:23:38.605Z,21.10
2023-01-29T20:26:15.248Z,20.58
2023-01-29T20:28:43.166Z,18.98
2023-01-29T20:31:10.467Z,20.50
2023-01-29T20:33:39.523Z,22.40
2023-01-29T20:36:10.995Z,23.83
2023-01-29T20:38:38.288Z,19.77
2023-01-29T20:41:13.991Z,22.35
2023-01-29T20:43:42.241Z,23.50
2023-01-29T20:46:10.283Z,22.25
2023-01-29T20:48:41.899Z,22.98
2023-01-29T20:51:16.191Z,24.08
2023-01-29T20:53:46.375Z,22.92
2023-01-29T20:56:17.286Z,20.88
2023-01-29T20:58:46.501Z,21.58
2023-01-29T21:01:20.179Z,22.00
2023-01-29T21:03:48.301Z,25.73
2023-01-29T21:06:16.166Z,20.55
2023-01-29T21:08:43.279Z,20.90
2023-01-29T21:11:11.120Z,21.02
2023-01-29T21:13:38.277Z,19.27
2023-01-29T21:16:06.238Z,20.90
2023-01-29T21:18:33.427Z,21.45
2023-01-29T21:21:00.735Z,24.77
2023-01-29T21:23:29.348Z,19.88
2023-01-29T21:26:06.564Z,22.02
2023-01-29T21:28:34.591Z,18.90
2023-01-29T21:31:10.315Z,19.75
2023-01-29T21:33:38.072Z,23.13
2023-01-29T21:36:06.144Z,21.73
2023-01-29T21:38:33.237Z,18.17
2023-01-29T21:41:06.540Z,22.77
2023-01-29T21:43:33.731Z,19.17
2023-01-29T21:46:05.037Z,21.25
2023-01-29T21:48:32.507Z,22.75
2023-01-29T21:50:59.864Z,19.58
2023-01-29T21:53:29.136Z,21.75
2023-01-29T21:56:04.441Z,19.90
2023-01-29T21:58:32.132Z,22.73
2023-01-29T22:01:36.725Z,21.88
2023-01-29T22:03:47.575Z,18.73
2023-01-29T22:06:15.536Z,23.20
2023-01-29T22:08:42.576Z,22.63
2023-01-29T22:11:10.458Z,20.25
2023-01-29T22:13:37.699Z,20.20
2023-01-29T22:16:05.906Z,21.80
2023-01-29T22:18:33.839Z,20.73
2023-01-29T22:21:02.904Z,22.13
2023-01-29T22:23:31.865Z,19.85
2023-01-29T22:26:07.275Z,21.08
2023-01-29T22:28:35.077Z,20.50
2023-01-29T22:31:04.481Z,24.08
2023-01-29T22:33:33.489Z,21.35
2023-01-29T22:36:03.528Z,19.98
2023-01-29T22:38:31.163Z,20.42
2023-01-29T22:41:00.611Z,18.98
2023-01-29T22:43:27.745Z,18.73
2023-01-29T22:45:56.426Z,19.92
2023-01-29T22:48:24.658Z,18.65
2023-01-29T22:51:12.265Z,18.25
2023-01-29T22:53:48.071Z,22.88
2023-01-29T22:56:15.870Z,26.02
2023-01-29T22:58:42.966Z,22.08
2023-01-29T23:01:11.134Z,17.45
2023-01-29T23:03:38.125Z,23.48
2023-01-29T23:06:06.380Z,20.17
2023-01-29T23:08:33.973Z,20.15
2023-01-29T23:11:15.277Z,19.58
2023-01-29T23:13:48.944Z,21.42
2023-01-29T23:16:18.317Z,21.20
2023-01-29T23:18:51.145Z,21.27
2023-01-29T23:21:19.642Z,23.08
2023-01-29T23:23:47.252Z,20.50
2023-01-29T23:26:34.140Z,22.58
2023-01-29T23:29:01.483Z,21.60
2023-01-29T23:31:28.705Z,19.05
2023-01-29T23:33:56.370Z,17.85
2023-01-29T23:36:23.528Z,19.40
2023-01-29T23:38:50.546Z,22.33
2023-01-29T23:41:17.769Z,22.38
2023-01-29T23:43:47.661Z,25.48
2023-01-29T23:46:14.907Z,20.58
2023-01-29T23:48:42.050Z,30.45
2023-01-29T23:51:10.675Z,26.35
2023-01-29T23:53:37.698Z,26.10
2023-01-29T23:56:06.090Z,26.27
2023-01-29T23:58:34.224Z,25.95
